Main page
METAR-TAF:

METAR-TAF

Airports :

Bückeburg Air Base

Bückeburg, Germany

latitude: 52-17N, longitude: 009-05E, elevation: 70 m

Current weather observation

The report was made 16 minutes ago, at 21:20 UTC
Wind 1 kt from the West
Temperature 5°C
Humidity 75%
Pressure 1017 hPa
Visibility 10 km or more
Broken clouds at a height of 5000 ft

METAR: ETHB 012120Z 27001KT 9999 BKN050 05/01 Q1017 BLU FCST CANCEL

Time: 23:36 (21:36 UTC)

Forecast

The report was made 35 minutes ago, at 21:01 UTC
Forecast valid from 01 at 20 UTC to 02 at 05 UTC
Wind 5 kt from the West/Southwest
Visibility: 2130 m
Broken clouds at a height of 5000 ft

TAF: ETHB 012101Z 0120/0205 25005KT 9999 NSW BKN050 CANCEL 2130

Weather observations and forecasts of more than 4000 airports (METAR and TAF reports).

The available stations are represented by yellow and red dots on the map.

Hover mouse over dot to see the name of the station.

Then click to see weather observations and forecasts.

To change the map : click on the green buttons with a black cross to zoom in, on the green button with a dash to zoom out, or on the green arrows for adjacent maps.


METAR-TAF: